sensor_id;sensor_type;location;lat;lon;timestamp;temperature;humidity
36134;DHT22;40492;43.524;-1.510;2022-09-09T00:03:53;21.50;99.90
36134;DHT22;40492;43.524;-1.510;2022-09-09T00:11:21;21.20;99.90
36134;DHT22;40492;43.524;-1.510;2022-09-09T00:13:52;21.20;99.90
36134;DHT22;40492;43.524;-1.510;2022-09-09T00:16:27;21.20;99.90
36134;DHT22;40492;43.524;-1.510;2022-09-09T00:21:43;21.10;99.90
36134;DHT22;40492;43.524;-1.510;2022-09-09T00:24:38;21.00;99.90
36134;DHT22;40492;43.524;-1.510;2022-09-09T00:30:17;21.00;99.90
36134;DHT22;40492;43.524;-1.510;2022-09-09T00:32:47;20.90;99.90
36134;DHT22;40492;43.524;-1.510;2022-09-09T00:37:45;20.90;99.90
36134;DHT22;40492;43.524;-1.510;2022-09-09T00:40:44;20.80;99.90
36134;DHT22;40492;43.524;-1.510;2022-09-09T00:43:30;20.80;99.90
36134;DHT22;40492;43.524;-1.510;2022-09-09T00:56:53;21.30;99.90
36134;DHT22;40492;43.524;-1.510;2022-09-09T00:59:35;21.30;99.90
36134;DHT22;40492;43.524;-1.510;2022-09-09T01:02:29;21.30;99.90
36134;DHT22;40492;43.524;-1.510;2022-09-09T01:05:04;21.40;99.90
36134;DHT22;40492;43.524;-1.510;2022-09-09T01:07:33;21.50;99.90
36134;DHT22;40492;43.524;-1.510;2022-09-09T01:10:00;21.50;99.90
36134;DHT22;40492;43.524;-1.510;2022-09-09T01:12:38;21.50;99.90
36134;DHT22;40492;43.524;-1.510;2022-09-09T01:15:26;21.50;99.90
36134;DHT22;40492;43.524;-1.510;2022-09-09T01:18:06;21.50;99.90
36134;DHT22;40492;43.524;-1.510;2022-09-09T01:23:38;21.60;99.90
36134;DHT22;40492;43.524;-1.510;2022-09-09T01:26:32;21.60;99.90
36134;DHT22;40492;43.524;-1.510;2022-09-09T01:29:00;21.60;99.90
36134;DHT22;40492;43.524;-1.510;2022-09-09T01:34:00;21.40;99.90
36134;DHT22;40492;43.524;-1.510;2022-09-09T01:36:32;21.40;99.90
36134;DHT22;40492;43.524;-1.510;2022-09-09T01:38:59;21.30;99.90
36134;DHT22;40492;43.524;-1.510;2022-09-09T01:41:25;21.30;99.90
36134;DHT22;40492;43.524;-1.510;2022-09-09T01:43:54;21.30;99.90
36134;DHT22;40492;43.524;-1.510;2022-09-09T01:46:22;21.10;99.90
36134;DHT22;40492;43.524;-1.510;2022-09-09T01:48:51;21.10;99.90
36134;DHT22;40492;43.524;-1.510;2022-09-09T01:51:18;20.90;99.90
36134;DHT22;40492;43.524;-1.510;2022-09-09T01:53:45;20.80;99.90
36134;DHT22;40492;43.524;-1.510;2022-09-09T02:06:53;20.40;99.90
36134;DHT22;40492;43.524;-1.510;2022-09-09T02:09:23;20.40;99.90
36134;DHT22;40492;43.524;-1.510;2022-09-09T02:11:55;20.30;99.90
36134;DHT22;40492;43.524;-1.510;2022-09-09T02:14:30;20.30;99.90
36134;DHT22;40492;43.524;-1.510;2022-09-09T02:17:07;20.30;99.90
36134;DHT22;40492;43.524;-1.510;2022-09-09T02:19:41;20.30;99.90
36134;DHT22;40492;43.524;-1.510;2022-09-09T02:22:09;20.00;99.90
36134;DHT22;40492;43.524;-1.510;2022-09-09T02:24:37;19.70;99.90
36134;DHT22;40492;43.524;-1.510;2022-09-09T02:27:06;19.50;99.90
36134;DHT22;40492;43.524;-1.510;2022-09-09T02:29:39;19.50;99.90
36134;DHT22;40492;43.524;-1.510;2022-09-09T02:32:11;19.40;99.90
36134;DHT22;40492;43.524;-1.510;2022-09-09T02:34:42;19.40;99.90
36134;DHT22;40492;43.524;-1.510;2022-09-09T02:37:09;19.40;99.90
36134;DHT22;40492;43.524;-1.510;2022-09-09T02:39:36;19.30;99.90
36134;DHT22;40492;43.524;-1.510;2022-09-09T02:42:04;19.20;99.90
36134;DHT22;40492;43.524;-1.510;2022-09-09T02:44:30;19.20;99.90
36134;DHT22;40492;43.524;-1.510;2022-09-09T02:47:12;19.10;99.90
36134;DHT22;40492;43.524;-1.510;2022-09-09T02:52:50;19.20;99.90
36134;DHT22;40492;43.524;-1.510;2022-09-09T02:55:39;19.10;99.90
36134;DHT22;40492;43.524;-1.510;2022-09-09T02:58:10;19.00;99.90
36134;DHT22;40492;43.524;-1.510;2022-09-09T03:00:39;19.00;99.90
36134;DHT22;40492;43.524;-1.510;2022-09-09T03:03:06;19.00;99.90
36134;DHT22;40492;43.524;-1.510;2022-09-09T03:05:32;19.00;99.90
36134;DHT22;40492;43.524;-1.510;2022-09-09T03:07:58;18.90;99.90
36134;DHT22;40492;43.524;-1.510;2022-09-09T03:10:24;18.90;99.90
36134;DHT22;40492;43.524;-1.510;2022-09-09T03:12:50;18.90;99.90
36134;DHT22;40492;43.524;-1.510;2022-09-09T03:15:16;18.90;99.90
36134;DHT22;40492;43.524;-1.510;2022-09-09T03:17:42;18.90;99.90
36134;DHT22;40492;43.524;-1.510;2022-09-09T03:20:08;18.90;99.90
36134;DHT22;40492;43.524;-1.510;2022-09-09T03:22:34;18.80;99.90
36134;DHT22;40492;43.524;-1.510;2022-09-09T03:25:01;18.70;99.90
36134;DHT22;40492;43.524;-1.510;2022-09-09T03:27:28;18.70;99.90
36134;DHT22;40492;43.524;-1.510;2022-09-09T03:29:54;18.60;99.90
36134;DHT22;40492;43.524;-1.510;2022-09-09T03:32:21;18.60;99.90
36134;DHT22;40492;43.524;-1.510;2022-09-09T03:34:48;18.60;99.90
36134;DHT22;40492;43.524;-1.510;2022-09-09T03:37:21;18.70;99.90
36134;DHT22;40492;43.524;-1.510;2022-09-09T03:39:48;18.80;99.90
36134;DHT22;40492;43.524;-1.510;2022-09-09T03:42:14;19.00;99.90
36134;DHT22;40492;43.524;-1.510;2022-09-09T03:44:45;19.00;99.90
36134;DHT22;40492;43.524;-1.510;2022-09-09T03:47:14;19.10;99.90
36134;DHT22;40492;43.524;-1.510;2022-09-09T03:49:40;19.10;99.90
36134;DHT22;40492;43.524;-1.510;2022-09-09T03:52:06;19.20;99.90
36134;DHT22;40492;43.524;-1.510;2022-09-09T03:54:33;19.20;99.90
36134;DHT22;40492;43.524;-1.510;2022-09-09T03:56:59;19.20;99.90
36134;DHT22;40492;43.524;-1.510;2022-09-09T03:59:25;19.30;99.90
36134;DHT22;40492;43.524;-1.510;2022-09-09T04:01:52;19.30;99.90
36134;DHT22;40492;43.524;-1.510;2022-09-09T04:04:18;19.40;99.90
36134;DHT22;40492;43.524;-1.510;2022-09-09T04:06:46;19.40;99.90
36134;DHT22;40492;43.524;-1.510;2022-09-09T04:09:14;19.40;99.90
36134;DHT22;40492;43.524;-1.510;2022-09-09T04:11:40;19.40;99.90
36134;DHT22;40492;43.524;-1.510;2022-09-09T04:14:06;19.40;99.90
36134;DHT22;40492;43.524;-1.510;2022-09-09T04:16:33;19.40;99.90
36134;DHT22;40492;43.524;-1.510;2022-09-09T04:18:59;19.40;99.90
36134;DHT22;40492;43.524;-1.510;2022-09-09T04:21:26;19.40;99.90
36134;DHT22;40492;43.524;-1.510;2022-09-09T04:23:52;19.50;99.90
36134;DHT22;40492;43.524;-1.510;2022-09-09T04:26:18;19.50;99.90
36134;DHT22;40492;43.524;-1.510;2022-09-09T04:28:44;19.50;99.90
36134;DHT22;40492;43.524;-1.510;2022-09-09T04:31:16;19.50;99.90
36134;DHT22;40492;43.524;-1.510;2022-09-09T04:33:43;19.50;99.90
36134;DHT22;40492;43.524;-1.510;2022-09-09T04:36:09;19.50;99.90
36134;DHT22;40492;43.524;-1.510;2022-09-09T04:38:35;19.50;99.90
36134;DHT22;40492;43.524;-1.510;2022-09-09T04:41:01;19.50;99.90
36134;DHT22;40492;43.524;-1.510;2022-09-09T04:43:27;19.50;99.90
36134;DHT22;40492;43.524;-1.510;2022-09-09T04:45:53;19.50;99.90
36134;DHT22;40492;43.524;-1.510;2022-09-09T04:48:20;19.50;99.90
36134;DHT22;40492;43.524;-1.510;2022-09-09T04:51:00;19.40;99.90
36134;DHT22;40492;43.524;-1.510;2022-09-09T04:53:27;19.40;99.90
36134;DHT22;40492;43.524;-1.510;2022-09-09T04:56:19;19.40;99.90
36134;DHT22;40492;43.524;-1.510;2022-09-09T04:58:45;19.40;99.90
36134;DHT22;40492;43.524;-1.510;2022-09-09T05:01:17;19.40;99.90
36134;DHT22;40492;43.524;-1.510;2022-09-09T05:03:43;19.40;99.90
36134;DHT22;40492;43.524;-1.510;2022-09-09T05:06:14;19.30;99.90
36134;DHT22;40492;43.524;-1.510;2022-09-09T05:08:42;19.30;99.90
36134;DHT22;40492;43.524;-1.510;2022-09-09T05:11:21;19.30;99.90
36134;DHT22;40492;43.524;-1.510;2022-09-09T05:13:49;19.20;99.90
36134;DHT22;40492;43.524;-1.510;2022-09-09T05:16:16;19.20;99.90
36134;DHT22;40492;43.524;-1.510;2022-09-09T05:18:42;19.10;99.90
36134;DHT22;40492;43.524;-1.510;2022-09-09T05:21:09;19.10;99.90
36134;DHT22;40492;43.524;-1.510;2022-09-09T05:23:36;19.10;99.90
36134;DHT22;40492;43.524;-1.510;2022-09-09T05:26:03;19.10;99.90
36134;DHT22;40492;43.524;-1.510;2022-09-09T05:28:29;19.00;99.90
36134;DHT22;40492;43.524;-1.510;2022-09-09T05:31:00;19.00;99.90
36134;DHT22;40492;43.524;-1.510;2022-09-09T05:33:29;19.00;99.90
36134;DHT22;40492;43.524;-1.510;2022-09-09T05:35:57;19.00;99.90
36134;DHT22;40492;43.524;-1.510;2022-09-09T05:38:23;19.10;99.90
36134;DHT22;40492;43.524;-1.510;2022-09-09T05:40:51;19.10;99.90
36134;DHT22;40492;43.524;-1.510;2022-09-09T05:43:18;19.00;99.90
36134;DHT22;40492;43.524;-1.510;2022-09-09T05:45:46;19.00;99.90
36134;DHT22;40492;43.524;-1.510;2022-09-09T05:48:14;19.10;99.90
36134;DHT22;40492;43.524;-1.510;2022-09-09T05:50:43;19.10;99.90
36134;DHT22;40492;43.524;-1.510;2022-09-09T05:53:10;19.00;99.90
36134;DHT22;40492;43.524;-1.510;2022-09-09T05:55:36;19.10;99.90
36134;DHT22;40492;43.524;-1.510;2022-09-09T05:58:02;19.10;99.90
36134;DHT22;40492;43.524;-1.510;2022-09-09T06:00:28;19.00;99.90
36134;DHT22;40492;43.524;-1.510;2022-09-09T06:02:57;19.10;99.90
36134;DHT22;40492;43.524;-1.510;2022-09-09T06:05:23;19.00;99.90
36134;DHT22;40492;43.524;-1.510;2022-09-09T06:07:53;19.10;99.90
36134;DHT22;40492;43.524;-1.510;2022-09-09T06:10:19;19.00;99.90
36134;DHT22;40492;43.524;-1.510;2022-09-09T06:12:45;18.90;99.90
36134;DHT22;40492;43.524;-1.510;2022-09-09T06:15:11;18.90;99.90
36134;DHT22;40492;43.524;-1.510;2022-09-09T06:17:37;18.90;99.90
36134;DHT22;40492;43.524;-1.510;2022-09-09T06:20:05;19.00;99.90
36134;DHT22;40492;43.524;-1.510;2022-09-09T06:22:31;19.10;99.90
36134;DHT22;40492;43.524;-1.510;2022-09-09T06:24:57;19.20;99.90
36134;DHT22;40492;43.524;-1.510;2022-09-09T06:27:23;19.30;99.90
36134;DHT22;40492;43.524;-1.510;2022-09-09T06:29:49;19.40;99.90
36134;DHT22;40492;43.524;-1.510;2022-09-09T06:32:15;19.40;99.90
36134;DHT22;40492;43.524;-1.510;2022-09-09T06:34:41;19.40;99.90
36134;DHT22;40492;43.524;-1.510;2022-09-09T06:37:07;19.40;99.90
36134;DHT22;40492;43.524;-1.510;2022-09-09T06:39:34;19.40;99.90
36134;DHT22;40492;43.524;-1.510;2022-09-09T06:42:00;19.50;99.90
36134;DHT22;40492;43.524;-1.510;2022-09-09T06:44:26;19.60;99.90
36134;DHT22;40492;43.524;-1.510;2022-09-09T06:46:52;19.50;99.90
36134;DHT22;40492;43.524;-1.510;2022-09-09T06:49:18;19.60;99.90
36134;DHT22;40492;43.524;-1.510;2022-09-09T06:51:44;19.60;99.90
36134;DHT22;40492;43.524;-1.510;2022-09-09T06:54:12;19.70;99.90
36134;DHT22;40492;43.524;-1.510;2022-09-09T06:56:42;19.80;99.90
36134;DHT22;40492;43.524;-1.510;2022-09-09T06:59:09;19.80;99.90
36134;DHT22;40492;43.524;-1.510;2022-09-09T07:01:37;19.90;99.90
36134;DHT22;40492;43.524;-1.510;2022-09-09T07:04:05;20.00;99.90
36134;DHT22;40492;43.524;-1.510;2022-09-09T07:06:44;20.10;99.90
36134;DHT22;40492;43.524;-1.510;2022-09-09T07:09:12;20.10;99.90
36134;DHT22;40492;43.524;-1.510;2022-09-09T07:11:43;20.20;99.90
36134;DHT22;40492;43.524;-1.510;2022-09-09T07:14:10;20.40;99.90
36134;DHT22;40492;43.524;-1.510;2022-09-09T07:16:39;20.60;99.90
36134;DHT22;40492;43.524;-1.510;2022-09-09T07:19:05;20.80;99.90
36134;DHT22;40492;43.524;-1.510;2022-09-09T07:21:32;21.00;99.90
36134;DHT22;40492;43.524;-1.510;2022-09-09T07:23:59;21.10;99.90
36134;DHT22;40492;43.524;-1.510;2022-09-09T07:26:30;21.30;99.90
36134;DHT22;40492;43.524;-1.510;2022-09-09T07:28:56;21.40;99.90
36134;DHT22;40492;43.524;-1.510;2022-09-09T07:31:36;21.30;99.90
36134;DHT22;40492;43.524;-1.510;2022-09-09T07:34:04;21.30;99.90
36134;DHT22;40492;43.524;-1.510;2022-09-09T07:36:32;21.20;99.90
36134;DHT22;40492;43.524;-1.510;2022-09-09T07:39:05;21.30;99.90
36134;DHT22;40492;43.524;-1.510;2022-09-09T07:41:33;21.40;99.90
36134;DHT22;40492;43.524;-1.510;2022-09-09T07:44:07;21.60;99.90
36134;DHT22;40492;43.524;-1.510;2022-09-09T07:46:40;21.70;99.90
36134;DHT22;40492;43.524;-1.510;2022-09-09T07:49:10;21.70;99.90
36134;DHT22;40492;43.524;-1.510;2022-09-09T07:51:44;21.70;99.90
36134;DHT22;40492;43.524;-1.510;2022-09-09T07:54:13;21.70;99.90
36134;DHT22;40492;43.524;-1.510;2022-09-09T07:56:42;21.80;99.90
36134;DHT22;40492;43.524;-1.510;2022-09-09T07:59:08;22.00;99.90
36134;DHT22;40492;43.524;-1.510;2022-09-09T08:01:38;22.20;99.90
36134;DHT22;40492;43.524;-1.510;2022-09-09T08:04:08;22.30;99.90
36134;DHT22;40492;43.524;-1.510;2022-09-09T08:06:39;22.30;99.90
36134;DHT22;40492;43.524;-1.510;2022-09-09T08:09:06;22.50;99.90
36134;DHT22;40492;43.524;-1.510;2022-09-09T08:11:33;22.70;99.90
36134;DHT22;40492;43.524;-1.510;2022-09-09T08:13:59;23.30;99.90
36134;DHT22;40492;43.524;-1.510;2022-09-09T08:16:31;23.90;99.90
36134;DHT22;40492;43.524;-1.510;2022-09-09T08:18:57;24.50;99.90
36134;DHT22;40492;43.524;-1.510;2022-09-09T08:21:27;26.80;99.90
36134;DHT22;40492;43.524;-1.510;2022-09-09T08:23:55;26.60;99.90
36134;DHT22;40492;43.524;-1.510;2022-09-09T08:26:23;26.20;99.90
36134;DHT22;40492;43.524;-1.510;2022-09-09T08:28:51;27.50;99.90
36134;DHT22;40492;43.524;-1.510;2022-09-09T08:31:20;28.90;99.90
36134;DHT22;40492;43.524;-1.510;2022-09-09T08:33:47;28.40;99.90
36134;DHT22;40492;43.524;-1.510;2022-09-09T08:36:16;28.30;99.90
36134;DHT22;40492;43.524;-1.510;2022-09-09T08:38:43;28.40;99.90
36134;DHT22;40492;43.524;-1.510;2022-09-09T08:49:45;29.30;99.90
36134;DHT22;40492;43.524;-1.510;2022-09-09T08:52:30;31.90;99.90
36134;DHT22;40492;43.524;-1.510;2022-09-09T08:55:15;31.60;99.90
36134;DHT22;40492;43.524;-1.510;2022-09-09T08:57:49;29.70;99.90
36134;DHT22;40492;43.524;-1.510;2022-09-09T09:00:15;28.10;99.90
36134;DHT22;40492;43.524;-1.510;2022-09-09T09:03:22;27.10;99.90
36134;DHT22;40492;43.524;-1.510;2022-09-09T09:11:42;24.90;99.90
36134;DHT22;40492;43.524;-1.510;2022-09-09T09:14:15;24.40;99.90
